Monday, November 24, 2014
22:40 UTC
  |  Log In   |  Register Free
Airport Search:

Okmulgee Regional Airport
(KOKM)

Okmulgee Regional Airport Diagram
No Airport Diagram Available

FAA data valid effective November 13, 2014 - January 08, 2015 (unless otherwise noted).

 
 
 
 
 
 
 
 
 
 
 
 
 
 

Current Aviation Weather for Okmulgee Regional Airport (KOKM)

The most recent METAR observation for KOKM was updated at: 2221
METAR Summary (Translated METAR)
KOKM
242155Z AUTO 29008G24KT 10SM CLR 13/M06 A2997 RMK AO2 T01321057
KF10
081459Z 31001KT 16/16 RMK PK WND 29004KT PCPN 1/3/6/12/24H 0.00 0.01 0.02 0.02 0.04
(16 nm SW from KOKM)
KRVS
242153Z 29007G18KT 250V350 10SM CLR 13/M07 A2996 RMK AO2 SLP150 T01331067
(22.4 nm NW from KOKM)
TAF Summary (Translated TAF)
KRVS
(22.4 nm NW from KOKM)
241732Z 2418/2518 28011G19KT P6SM SKC FM250000 33004KT P6SM SKC
  Airport Weather Conditions for KOKM

 Current Weather at OKM
56° F
Fair
Northwest winds at 15.0 mph
OKM NOAA Radar

Pressure: 29.96 in
Humidity: 27%
Wind: from the Northwest at 15.0 gusting to 29.9 MPH (13 gusting to 26 KT)
Dew Point: 22.6°F
Visibility: 10.00 mi


Airport Weather Forecast for KOKM

Translated METAR and TAF for KOKM
Translated METAR for KOKM (2235 UTC 24 November 2014)
found at http://aviationweather.gov/adds/metars/
 
METAR text: KOKM 242215Z AUTO 30012G22KT 10SM CLR 13/M05 A2997 RMK AO2 T01301054
Conditions at: KOKM (OKMULGEE , OK, US) observed 2215 UTC 24 November 2014
Temperature: 13.0°C (55°F)
Dewpoint: -5.4°C (22°F) [RH = 27%]
Pressure (altimeter): 29.97 inches Hg (1015.0 mb)
Winds: from the WNW (300 degrees) at 14 MPH (12 knots; 6.2 m/s)
gusting to 25 MPH (22 knots; 11.4 m/s)
Visibility: 10 or more miles (16+ km)
Ceiling: at least 12,000 feet AGL
Clouds: sky clear below 12,000 feet AGL
Weather: automated observation with no human augmentation;
there may or may not be significant weather present at this time
Translated TAF for KOKM

There is no translated TAF available for this airport

Find All Airport Services Find A Hotel Find A Rental Car Find A Golf Course Find A Restaurant $100 Hamburger



FBO's on the Field
FBO Company Facility Photos Services Transportation Aviation Fuel Prices: Prices include tax
Catering Weather Repair Courtesy Rental Type 100LL JetA JetA+ MOGAS 8087
 
Okmulgee Regional Airport

This FBO has not yet been rated
FS:Phillips 66
Last Updated: Nov-20
Login to update fuel prices
SS:
Contact Okmulgee Regional AirportMore FBO Information
 
Add another FBO Facility Photos Catering Weather Repair Courtesy Rental Type 100LL JetA JetA+ MOGAS 8087
Services Transportation Aviation Fuel Prices: Prices include tax


model-print
model-print
model-print
model-print